Baltimore, Maryland
Traffic Map
Current Weather Conditions
Baltimore, Maryland
Few Clouds
Few Clouds
72°
Feels Like: 72°
Wind Chill: 72° Ceiling: Unl
Heat Index: 72° Visibility: 10mi
Dew Point: 56° Wind: 3mph
Humidity: 57% Direction: 160° (SSE)
Pressure: 30.13in Gusts: 0mph
Raw Report DataKBWI 270154Z 16003KT 10SM FEW250 22/13 A3013 RMK AO2 SLP200 T02220133
Traffic Incident Summary
Active as of:
Severity:
Category:
InformationThere was an issue retrieving the traffic information for this location. Please try a different location or try again shortly.
Advertisements
Track Severe Weather on mobile